createdAt,value
2022-09-12T00:00:40.342Z,16.40
2022-09-12T00:03:07.105Z,16.30
2022-09-12T00:05:33.840Z,16.30
2022-09-12T00:08:00.669Z,16.10
2022-09-12T00:10:27.400Z,16.00
2022-09-12T00:12:54.169Z,16.10
2022-09-12T00:15:20.952Z,16.20
2022-09-12T00:17:47.686Z,16.40
2022-09-12T00:20:14.474Z,16.50
2022-09-12T00:22:41.272Z,16.50
2022-09-12T00:25:08.460Z,16.40
2022-09-12T00:27:35.360Z,16.10
2022-09-12T00:30:02.113Z,16.00
2022-09-12T00:32:28.866Z,16.00
2022-09-12T00:34:55.617Z,16.20
2022-09-12T00:37:22.376Z,16.30
2022-09-12T00:39:49.231Z,16.30
2022-09-12T00:42:15.999Z,16.30
2022-09-12T00:44:43.852Z,16.30
2022-09-12T00:47:18.363Z,16.10
2022-09-12T00:49:45.159Z,15.90
2022-09-12T00:52:15.904Z,15.90
2022-09-12T00:54:47.837Z,15.80
2022-09-12T00:57:14.552Z,15.80
2022-09-12T01:00:16.823Z,15.50
2022-09-12T01:02:44.291Z,15.70
2022-09-12T01:05:11.197Z,15.80
2022-09-12T01:07:40.178Z,15.80
2022-09-12T01:10:07.340Z,15.70
2022-09-12T01:12:34.453Z,15.60
2022-09-12T01:15:01.308Z,15.80
2022-09-12T01:17:29.406Z,15.60
2022-09-12T01:20:26.512Z,15.70
2022-09-12T01:23:05.995Z,15.60
2022-09-12T01:25:38.677Z,15.60
2022-09-12T01:28:05.417Z,15.60
2022-09-12T01:30:32.253Z,15.60
2022-09-12T01:33:04.912Z,15.50
2022-09-12T01:36:01.080Z,15.20
2022-09-12T01:38:30.296Z,15.50
2022-09-12T01:41:11.238Z,15.60
2022-09-12T01:43:38.091Z,15.30
2022-09-12T01:46:07.037Z,15.30
2022-09-12T01:48:36.078Z,15.40
2022-09-12T01:51:06.142Z,15.30
2022-09-12T01:53:37.684Z,15.30
2022-09-12T01:56:08.841Z,15.30
2022-09-12T01:58:38.246Z,15.20
2022-09-12T02:01:06.777Z,15.30
2022-09-12T02:03:41.081Z,15.20
2022-09-12T02:06:08.787Z,15.30
2022-09-12T02:08:38.148Z,15.10
2022-09-12T02:11:08.897Z,14.90
2022-09-12T02:13:43.149Z,14.90
2022-09-12T02:16:10.867Z,15.00
2022-09-12T02:18:42.212Z,15.00
2022-09-12T02:21:08.988Z,14.90
2022-09-12T02:23:36.975Z,15.00
2022-09-12T02:26:05.569Z,15.00
2022-09-12T02:28:36.112Z,15.00
2022-09-12T02:31:05.694Z,15.20
2022-09-12T02:33:40.798Z,15.20
2022-09-12T02:36:26.908Z,15.10
2022-09-12T02:38:53.684Z,14.90
2022-09-12T02:41:20.604Z,14.90
2022-09-12T02:43:47.758Z,14.80
2022-09-12T02:46:17.682Z,14.80
2022-09-12T02:48:44.531Z,14.80
2022-09-12T02:51:11.386Z,14.80
2022-09-12T02:53:38.164Z,14.70
2022-09-12T02:56:05.628Z,14.90
2022-09-12T02:58:32.402Z,14.90
2022-09-12T03:01:17.946Z,14.80
2022-09-12T03:03:48.214Z,14.80
2022-09-12T03:06:16.981Z,14.90
2022-09-12T03:08:44.341Z,14.90
2022-09-12T03:11:23.440Z,14.80
2022-09-12T03:13:50.186Z,14.60
2022-09-12T03:16:19.964Z,14.90
2022-09-12T03:18:46.999Z,14.90
2022-09-12T03:21:16.919Z,14.80
2022-09-12T03:23:50.940Z,14.90
2022-09-12T03:26:22.666Z,14.80
2022-09-12T03:28:49.517Z,14.70
2022-09-12T03:31:16.817Z,14.70
2022-09-12T03:33:43.632Z,14.70
2022-09-12T03:36:14.051Z,14.60
2022-09-12T03:38:40.812Z,14.80
2022-09-12T03:41:07.540Z,14.70
2022-09-12T03:43:34.252Z,14.80
2022-09-12T03:46:01.092Z,14.80
2022-09-12T03:48:27.861Z,14.70
2022-09-12T03:50:54.598Z,14.80
2022-09-12T03:53:21.330Z,14.80
2022-09-12T03:55:48.098Z,14.70
2022-09-12T03:58:14.840Z,14.80
2022-09-12T04:00:42.972Z,14.80
2022-09-12T04:03:09.744Z,14.80
2022-09-12T04:05:36.479Z,14.80
2022-09-12T04:08:03.228Z,14.90
2022-09-12T04:10:29.956Z,15.00
2022-09-12T04:12:56.678Z,14.70
2022-09-12T04:15:23.710Z,14.90
2022-09-12T04:17:50.420Z,14.90
2022-09-12T04:20:17.161Z,14.80
2022-09-12T04:22:43.873Z,15.00
2022-09-12T04:25:11.708Z,15.00
2022-09-12T04:27:38.570Z,14.70
2022-09-12T04:30:05.585Z,14.80
2022-09-12T04:32:32.332Z,15.00
2022-09-12T04:34:59.134Z,14.90
2022-09-12T04:37:26.031Z,15.00
2022-09-12T04:39:57.721Z,15.10
2022-09-12T04:42:24.653Z,15.10
2022-09-12T04:44:52.133Z,15.10
2022-09-12T04:47:19.022Z,14.80
2022-09-12T04:49:45.726Z,14.70
2022-09-12T04:52:12.520Z,14.70
2022-09-12T04:54:39.849Z,14.80
2022-09-12T04:57:06.571Z,14.80
2022-09-12T04:59:33.317Z,14.90
2022-09-12T05:02:00.145Z,14.70
2022-09-12T05:04:26.950Z,14.60
2022-09-12T05:06:53.704Z,14.90
2022-09-12T05:09:20.688Z,14.90
2022-09-12T05:12:03.650Z,14.90
2022-09-12T05:14:32.601Z,15.10
2022-09-12T05:17:02.278Z,15.20
2022-09-12T05:19:29.301Z,15.10
2022-09-12T05:21:56.368Z,15.40
2022-09-12T05:24:23.110Z,15.30
2022-09-12T05:26:50.060Z,15.20
2022-09-12T05:29:16.870Z,15.20
2022-09-12T05:31:43.605Z,15.30
2022-09-12T05:34:10.407Z,15.30
2022-09-12T05:36:37.288Z,15.40
2022-09-12T05:39:04.683Z,15.50
2022-09-12T05:41:33.012Z,15.50
2022-09-12T05:44:00.334Z,15.60
2022-09-12T05:46:28.023Z,15.50
2022-09-12T05:48:56.321Z,15.70
2022-09-12T05:51:23.548Z,15.70
2022-09-12T05:53:51.615Z,15.70
2022-09-12T05:56:19.133Z,15.80
2022-09-12T05:58:49.080Z,16.00
2022-09-12T06:01:16.401Z,16.20
2022-09-12T06:03:44.590Z,16.50
2022-09-12T06:06:14.399Z,16.60
2022-09-12T06:08:42.077Z,16.80
2022-09-12T06:11:09.581Z,16.80
2022-09-12T06:13:45.722Z,16.80
2022-09-12T06:16:13.396Z,16.70
2022-09-12T06:18:40.707Z,16.90
2022-09-12T06:21:10.832Z,17.00
2022-09-12T06:23:37.969Z,17.20
2022-09-12T06:26:05.055Z,17.20
2022-09-12T06:28:32.111Z,17.20
2022-09-12T06:31:04.595Z,17.60
2022-09-12T06:33:34.804Z,17.50
2022-09-12T06:36:12.213Z,17.70
2022-09-12T06:38:39.461Z,17.90
2022-09-12T06:41:07.194Z,17.50
2022-09-12T06:43:34.576Z,18.10
2022-09-12T06:46:02.033Z,18.10
2022-09-12T06:48:29.426Z,17.90
2022-09-12T06:50:57.785Z,18.00
2022-09-12T06:53:24.664Z,18.00
2022-09-12T06:55:58.220Z,18.10
2022-09-12T06:58:25.589Z,18.20
2022-09-12T07:00:54.983Z,18.80
2022-09-12T07:03:25.277Z,18.80
2022-09-12T07:05:52.366Z,19.00
2022-09-12T07:08:20.642Z,18.80
2022-09-12T07:10:47.444Z,18.80
2022-09-12T07:13:14.374Z,18.70
2022-09-12T07:15:41.222Z,18.90
2022-09-12T07:18:09.150Z,19.20
2022-09-12T07:20:37.214Z,19.00
2022-09-12T07:23:03.999Z,19.20
2022-09-12T07:25:30.806Z,19.50
2022-09-12T07:28:00.093Z,19.30
2022-09-12T07:30:27.049Z,19.10
2022-09-12T07:32:54.159Z,19.30
2022-09-12T07:35:23.315Z,19.90
2022-09-12T07:37:50.083Z,20.00
2022-09-12T07:40:16.919Z,20.00
2022-09-12T07:42:43.741Z,20.00
2022-09-12T07:45:11.319Z,19.90
2022-09-12T07:47:40.922Z,19.80
2022-09-12T07:50:09.085Z,20.10
2022-09-12T07:52:36.564Z,20.40
2022-09-12T07:55:03.600Z,20.40
2022-09-12T07:57:30.358Z,20.40
2022-09-12T07:59:57.319Z,20.40
2022-09-12T08:02:25.566Z,20.80
2022-09-12T08:04:53.697Z,20.80
2022-09-12T08:07:20.628Z,19.90
2022-09-12T08:09:47.570Z,20.70
2022-09-12T08:12:14.966Z,20.90
2022-09-12T08:14:41.791Z,21.00
2022-09-12T08:17:08.739Z,21.10
2022-09-12T08:19:35.624Z,21.00
2022-09-12T08:22:03.473Z,21.40
2022-09-12T08:24:32.424Z,21.50
2022-09-12T08:26:59.438Z,21.80
2022-09-12T08:29:26.220Z,22.10
2022-09-12T08:31:57.176Z,22.00
2022-09-12T08:34:24.920Z,22.60
2022-09-12T08:36:54.256Z,23.00
2022-09-12T08:39:21.741Z,23.20
2022-09-12T08:41:48.921Z,23.50
2022-09-12T08:44:34.954Z,23.70
2022-09-12T08:47:11.070Z,23.80
2022-09-12T08:49:54.737Z,24.40
2022-09-12T08:52:23.815Z,24.20
2022-09-12T08:54:50.706Z,24.40
2022-09-12T08:57:19.182Z,24.00
2022-09-12T09:00:23.570Z,23.30
2022-09-12T09:02:50.843Z,23.30
2022-09-12T09:05:20.398Z,24.30
2022-09-12T09:07:58.774Z,24.40
2022-09-12T09:10:25.609Z,24.20
2022-09-12T09:12:58.280Z,24.40
2022-09-12T09:15:34.173Z,24.80
2022-09-12T09:18:21.270Z,25.00
2022-09-12T09:20:56.280Z,26.30
2022-09-12T09:23:44.831Z,26.30
2022-09-12T09:26:15.960Z,25.50
2022-09-12T09:28:46.825Z,25.10
2022-09-12T09:31:18.990Z,25.50
2022-09-12T09:33:55.475Z,26.30
2022-09-12T09:36:25.313Z,26.80
2022-09-12T09:38:59.978Z,26.50
2022-09-12T09:41:30.677Z,26.80
2022-09-12T09:43:57.760Z,26.20
2022-09-12T09:46:27.276Z,26.10
2022-09-12T09:48:54.981Z,26.90
2022-09-12T09:51:27.244Z,27.60
2022-09-12T09:54:09.122Z,27.90
2022-09-12T09:56:45.927Z,29.40
2022-09-12T09:59:22.843Z,29.80
2022-09-12T10:01:50.486Z,29.90
2022-09-12T10:04:18.239Z,30.30
2022-09-12T10:06:44.986Z,30.50
2022-09-12T10:09:14.854Z,27.10
2022-09-12T10:11:45.808Z,27.00
2022-09-12T10:14:31.438Z,26.90
2022-09-12T10:16:58.798Z,28.00
2022-09-12T10:19:35.724Z,25.40
2022-09-12T10:22:03.807Z,26.20
2022-09-12T10:24:37.960Z,25.80
2022-09-12T10:27:09.033Z,25.90
2022-09-12T10:29:39.533Z,25.60
2022-09-12T10:32:06.892Z,27.40
2022-09-12T10:34:37.335Z,27.70
2022-09-12T10:37:11.284Z,27.10
2022-09-12T10:39:38.626Z,26.90
2022-09-12T10:42:08.154Z,26.70
2022-09-12T10:44:35.179Z,27.90
2022-09-12T10:47:22.177Z,30.10
2022-09-12T10:49:51.162Z,28.90
2022-09-12T10:52:22.641Z,30.60
2022-09-12T10:54:50.107Z,28.80
2022-09-12T10:57:33.441Z,30.50
2022-09-12T11:00:30.527Z,30.50
2022-09-12T11:03:06.149Z,30.90
2022-09-12T11:05:36.771Z,32.90
2022-09-12T11:08:12.251Z,31.80
2022-09-12T11:10:57.100Z,31.90
2022-09-12T11:16:36.229Z,32.10
2022-09-12T11:19:41.300Z,29.90
2022-09-12T11:22:17.734Z,27.70
2022-09-12T11:25:08.449Z,28.40
2022-09-12T11:27:45.297Z,29.30
2022-09-12T11:30:12.919Z,30.80
2022-09-12T11:32:40.516Z,32.20
2022-09-12T11:35:17.619Z,33.60
2022-09-12T11:37:48.075Z,33.80
2022-09-12T11:40:33.900Z,30.40
2022-09-12T11:43:06.534Z,30.60
2022-09-12T11:45:40.243Z,29.60
2022-09-12T11:48:10.014Z,29.10
2022-09-12T11:50:38.747Z,30.60
2022-09-12T11:53:10.188Z,30.10
2022-09-12T11:56:00.019Z,32.10
2022-09-12T11:58:27.467Z,33.90
2022-09-12T12:00:56.296Z,34.60
2022-09-12T12:03:27.281Z,34.60
2022-09-12T12:05:54.795Z,35.10
2022-09-12T12:08:22.427Z,34.30
2022-09-12T12:10:56.486Z,35.40
2022-09-12T12:13:27.934Z,35.40
2022-09-12T12:15:59.588Z,36.40
2022-09-12T12:18:30.079Z,37.80
2022-09-12T12:20:56.895Z,37.30
2022-09-12T12:23:23.773Z,35.40
2022-09-12T12:25:51.809Z,34.80
2022-09-12T12:28:37.535Z,35.40
2022-09-12T12:31:05.806Z,33.30
2022-09-12T12:33:32.761Z,33.40
2022-09-12T12:36:01.100Z,32.70
2022-09-12T12:38:27.982Z,30.70
2022-09-12T12:40:54.880Z,28.40
2022-09-12T12:43:31.616Z,27.50
2022-09-12T12:46:02.961Z,26.60
2022-09-12T12:48:30.359Z,26.60
2022-09-12T12:51:15.521Z,30.50
2022-09-12T12:53:42.398Z,30.20
2022-09-12T12:56:27.641Z,28.90
2022-09-12T12:58:57.851Z,31.30
2022-09-12T13:01:25.462Z,33.60
2022-09-12T13:03:52.471Z,34.40
2022-09-12T13:06:34.055Z,32.60
2022-09-12T13:09:04.940Z,31.70
2022-09-12T13:11:38.894Z,31.30
2022-09-12T13:14:24.518Z,32.00
2022-09-12T13:16:54.913Z,28.40
2022-09-12T13:19:27.415Z,28.20
2022-09-12T13:21:57.589Z,27.10
2022-09-12T13:24:24.491Z,26.00
2022-09-12T13:26:51.520Z,26.30
2022-09-12T13:29:19.204Z,26.70
2022-09-12T13:31:47.455Z,26.50
2022-09-12T13:34:34.028Z,26.30
2022-09-12T13:37:19.673Z,25.70
2022-09-12T13:39:50.364Z,25.80
2022-09-12T13:42:20.334Z,25.10
2022-09-12T13:44:50.412Z,24.70
2022-09-12T13:47:19.751Z,24.60
2022-09-12T13:49:47.186Z,24.50
2022-09-12T13:52:25.117Z,24.70
2022-09-12T13:54:59.274Z,24.60
2022-09-12T13:57:37.879Z,24.90
2022-09-12T14:00:08.127Z,24.60
2022-09-12T14:02:35.407Z,24.80
2022-09-12T14:05:11.161Z,25.30
2022-09-12T14:07:45.282Z,25.40
2022-09-12T14:10:13.744Z,25.10
2022-09-12T14:12:51.541Z,24.60
2022-09-12T14:15:25.402Z,24.20
2022-09-12T14:17:53.044Z,24.30
2022-09-12T14:20:20.320Z,24.70
2022-09-12T14:22:50.552Z,25.10
2022-09-12T14:25:19.495Z,25.20
2022-09-12T14:27:47.996Z,24.80
2022-09-12T14:30:20.919Z,25.00
2022-09-12T14:33:03.526Z,25.10
2022-09-12T14:35:30.730Z,24.80
2022-09-12T14:37:57.515Z,24.20
2022-09-12T14:40:26.767Z,24.10
2022-09-12T14:42:55.991Z,23.80
2022-09-12T14:45:25.912Z,23.60
2022-09-12T14:47:53.247Z,23.80
2022-09-12T14:50:22.567Z,23.70
2022-09-12T14:53:06.415Z,23.70
2022-09-12T14:55:34.463Z,23.80
2022-09-12T14:58:22.968Z,24.00
2022-09-12T15:00:52.571Z,24.00
2022-09-12T15:03:28.156Z,24.00
2022-09-12T15:05:55.634Z,23.70
2022-09-12T15:08:22.648Z,23.90
2022-09-12T15:10:49.657Z,23.70
2022-09-12T15:13:20.294Z,23.50
2022-09-12T15:15:50.832Z,23.60
2022-09-12T15:18:18.923Z,23.80
2022-09-12T15:20:46.592Z,23.60
2022-09-12T15:23:18.565Z,23.90
2022-09-12T15:25:45.624Z,23.60
2022-09-12T15:28:16.725Z,23.60
2022-09-12T15:30:43.706Z,23.80
2022-09-12T15:33:11.422Z,23.60
2022-09-12T15:35:38.711Z,23.50
2022-09-12T15:38:05.639Z,23.30
2022-09-12T15:40:32.766Z,23.60
2022-09-12T15:42:59.799Z,23.90
2022-09-12T15:45:27.868Z,24.00
2022-09-12T15:47:55.156Z,23.60
2022-09-12T15:50:21.996Z,23.40
2022-09-12T15:52:48.864Z,23.70
2022-09-12T15:55:20.000Z,23.70
2022-09-12T15:57:46.956Z,23.90
2022-09-12T16:00:14.242Z,23.70
2022-09-12T16:02:41.337Z,23.60
2022-09-12T16:05:11.388Z,23.60
2022-09-12T16:07:38.278Z,23.40
2022-09-12T16:10:06.149Z,23.40
2022-09-12T16:12:33.030Z,23.30
2022-09-12T16:15:00.313Z,23.30
2022-09-12T16:17:27.171Z,23.20
2022-09-12T16:19:56.979Z,23.20
2022-09-12T16:22:31.023Z,23.30
2022-09-12T16:24:57.956Z,23.20
2022-09-12T16:27:24.937Z,23.00
2022-09-12T16:29:52.182Z,23.00
2022-09-12T16:32:19.089Z,22.40
2022-09-12T16:34:45.990Z,22.20
2022-09-12T16:37:12.785Z,21.90
2022-09-12T16:39:39.682Z,21.80
2022-09-12T16:42:06.812Z,21.70
2022-09-12T16:44:33.612Z,21.60
2022-09-12T16:47:00.442Z,21.50
2022-09-12T16:52:22.133Z,21.20
2022-09-12T16:54:49.066Z,20.90
2022-09-12T16:57:15.866Z,20.70
2022-09-12T16:59:42.742Z,20.70
2022-09-12T17:02:13.483Z,20.60
2022-09-12T17:04:40.619Z,20.50
2022-09-12T17:07:07.700Z,20.30
2022-09-12T17:09:35.135Z,20.40
2022-09-12T17:12:02.106Z,20.30
2022-09-12T17:14:28.937Z,20.40
2022-09-12T17:16:55.819Z,20.30
2022-09-12T17:19:24.543Z,20.00
2022-09-12T17:21:51.415Z,20.10
2022-09-12T17:24:18.387Z,20.20
2022-09-12T17:26:45.431Z,20.00
2022-09-12T17:29:12.821Z,19.90
2022-09-12T17:31:40.110Z,19.70
2022-09-12T17:34:07.038Z,19.50
2022-09-12T17:36:34.189Z,19.50
2022-09-12T17:39:01.932Z,19.50
2022-09-12T17:41:28.998Z,19.40
2022-09-12T17:43:57.479Z,19.50
2022-09-12T17:46:25.343Z,19.40
2022-09-12T17:48:55.705Z,19.50
2022-09-12T17:51:24.631Z,19.30
2022-09-12T17:53:59.152Z,19.20
2022-09-12T17:56:28.077Z,19.10
2022-09-12T17:58:55.656Z,19.10
2022-09-12T18:01:40.878Z,19.10
2022-09-12T18:04:07.966Z,19.00
2022-09-12T18:06:34.797Z,19.10
2022-09-12T18:09:02.420Z,19.00
2022-09-12T18:11:29.329Z,19.10
2022-09-12T18:13:56.172Z,19.10
2022-09-12T18:16:23.111Z,19.10
2022-09-12T18:18:51.149Z,18.90
2022-09-12T18:21:17.989Z,18.80
2022-09-12T18:23:44.805Z,18.70
2022-09-12T18:26:13.465Z,18.80
2022-09-12T18:28:42.486Z,18.90
2022-09-12T18:31:10.558Z,18.80
2022-09-12T18:33:38.155Z,18.70
2022-09-12T18:36:05.552Z,18.30
2022-09-12T18:38:32.566Z,18.20
2022-09-12T18:41:05.978Z,18.20
2022-09-12T18:43:32.787Z,18.20
2022-09-12T18:46:03.395Z,18.10
2022-09-12T18:48:31.620Z,18.40
2022-09-12T18:51:10.457Z,18.50
2022-09-12T18:53:37.599Z,18.30
2022-09-12T18:56:09.230Z,18.20
2022-09-12T18:58:40.665Z,18.10
2022-09-12T19:01:36.765Z,18.00
2022-09-12T19:04:11.746Z,17.90
2022-09-12T19:06:39.484Z,17.80
2022-09-12T19:09:09.571Z,17.90
2022-09-12T19:11:37.281Z,17.90
2022-09-12T19:14:04.197Z,17.80
2022-09-12T19:16:31.579Z,17.60
2022-09-12T19:18:58.463Z,17.60
2022-09-12T19:21:26.035Z,17.60
2022-09-12T19:23:53.349Z,17.60
2022-09-12T19:26:20.561Z,17.50
2022-09-12T19:28:47.581Z,17.80
2022-09-12T19:31:15.226Z,17.80
2022-09-12T19:33:42.235Z,17.60
2022-09-12T19:36:27.317Z,17.50
2022-09-12T19:38:56.771Z,17.30
2022-09-12T19:41:23.597Z,17.20
2022-09-12T19:43:50.540Z,17.20
2022-09-12T19:46:18.310Z,17.10
2022-09-12T19:48:45.621Z,17.10
2022-09-12T19:51:12.688Z,17.10
2022-09-12T19:53:40.904Z,17.10
2022-09-12T19:56:08.903Z,17.10
2022-09-12T19:58:39.444Z,17.30
2022-09-12T20:01:10.088Z,17.40
2022-09-12T20:03:37.043Z,17.40
2022-09-12T20:06:04.641Z,17.10
2022-09-12T20:08:32.184Z,17.00
2022-09-12T20:10:58.993Z,16.80
2022-09-12T20:13:25.944Z,16.70
2022-09-12T20:15:52.739Z,16.70
2022-09-12T20:18:19.539Z,16.90
2022-09-12T20:20:46.370Z,17.00
2022-09-12T20:23:13.160Z,17.10
2022-09-12T20:25:40.000Z,17.10
2022-09-12T20:28:06.798Z,16.90
2022-09-12T20:30:33.607Z,16.90
2022-09-12T20:33:00.411Z,16.70
2022-09-12T20:35:27.229Z,16.80
2022-09-12T20:37:54.065Z,16.70
2022-09-12T20:40:20.914Z,16.70
2022-09-12T20:42:47.744Z,16.50
2022-09-12T20:45:14.519Z,16.60
2022-09-12T20:47:41.367Z,16.60
2022-09-12T20:50:08.522Z,16.70
2022-09-12T20:52:35.307Z,16.60
2022-09-12T20:55:02.106Z,16.60
2022-09-12T20:57:28.970Z,16.70
2022-09-12T20:59:55.812Z,16.70
2022-09-12T21:02:22.970Z,16.80
2022-09-12T21:04:51.076Z,16.70
2022-09-12T21:07:17.993Z,16.70
2022-09-12T21:09:44.851Z,16.50
2022-09-12T21:12:11.631Z,16.70
2022-09-12T21:14:38.492Z,16.70
2022-09-12T21:17:05.455Z,16.80
2022-09-12T21:19:32.225Z,16.90
2022-09-12T21:21:59.159Z,16.80
2022-09-12T21:24:25.981Z,16.70
2022-09-12T21:26:52.835Z,16.50
2022-09-12T21:29:19.623Z,16.70
2022-09-12T21:31:46.472Z,16.60
2022-09-12T21:34:13.230Z,16.60
2022-09-12T21:36:40.070Z,16.70
2022-09-12T21:39:06.987Z,16.40
2022-09-12T21:41:33.841Z,16.20
2022-09-12T21:44:00.853Z,16.50
2022-09-12T21:46:27.699Z,16.40
2022-09-12T21:48:54.520Z,16.40
2022-09-12T21:51:21.366Z,16.50
2022-09-12T21:53:48.316Z,16.30
2022-09-12T21:56:15.327Z,16.40
2022-09-12T21:58:44.783Z,16.30
2022-09-12T22:01:11.733Z,16.20
2022-09-12T22:03:38.564Z,16.20
2022-09-12T22:06:05.788Z,16.20
2022-09-12T22:08:33.098Z,16.10
2022-09-12T22:11:00.889Z,16.30
2022-09-12T22:13:28.236Z,16.20
2022-09-12T22:15:55.413Z,16.20
2022-09-12T22:18:22.228Z,16.20
2022-09-12T22:20:49.020Z,16.20
2022-09-12T22:23:34.256Z,16.30
2022-09-12T22:26:01.529Z,16.40
2022-09-12T22:28:29.845Z,16.40
2022-09-12T22:30:56.931Z,16.30
2022-09-12T22:33:23.773Z,16.30
2022-09-12T22:35:50.622Z,16.30
2022-09-12T22:38:17.425Z,16.20
2022-09-12T22:40:44.220Z,16.10
2022-09-12T22:43:11.565Z,15.90
2022-09-12T22:45:40.462Z,16.00
2022-09-12T22:48:09.171Z,16.00
2022-09-12T22:50:36.299Z,16.10
2022-09-12T22:53:03.067Z,15.90
2022-09-12T22:55:29.857Z,16.10
2022-09-12T22:57:56.646Z,15.80
2022-09-12T23:00:23.873Z,15.80
2022-09-12T23:02:50.862Z,15.80
2022-09-12T23:05:17.658Z,15.90
2022-09-12T23:07:44.434Z,16.10
2022-09-12T23:10:11.246Z,15.80
2022-09-12T23:12:38.031Z,15.80
2022-09-12T23:15:05.147Z,15.90
2022-09-12T23:17:33.865Z,15.90
2022-09-12T23:20:01.989Z,15.90
2022-09-12T23:22:28.819Z,15.70
2022-09-12T23:24:55.611Z,15.70
2022-09-12T23:27:23.228Z,15.40
2022-09-12T23:29:52.459Z,15.30
2022-09-12T23:32:21.042Z,15.30
2022-09-12T23:34:48.429Z,15.40
2022-09-12T23:37:15.789Z,15.50
2022-09-12T23:39:42.737Z,15.70
2022-09-12T23:42:09.624Z,15.60
2022-09-12T23:44:36.496Z,15.40
2022-09-12T23:47:03.318Z,15.40
2022-09-12T23:49:30.313Z,15.30
2022-09-12T23:51:57.170Z,15.40
2022-09-12T23:54:25.136Z,15.20
2022-09-12T23:56:52.226Z,15.10
2022-09-12T23:59:19.062Z,15.20
